createdAt,value
2023-09-18T00:00:34.101Z,2.03
2023-09-18T00:03:04.067Z,1.92
2023-09-18T00:05:31.887Z,1.83
2023-09-18T00:07:58.856Z,1.73
2023-09-18T00:10:27.306Z,2.00
2023-09-18T00:12:53.804Z,1.85
2023-09-18T00:15:20.287Z,1.98
2023-09-18T00:17:46.970Z,1.85
2023-09-18T00:20:14.620Z,1.70
2023-09-18T00:22:41.298Z,1.58
2023-09-18T00:25:08.165Z,2.03
2023-09-18T00:27:37.009Z,1.70
2023-09-18T00:30:07.629Z,1.70
2023-09-18T00:32:34.523Z,1.88
2023-09-18T00:35:01.428Z,2.00
2023-09-18T00:37:28.024Z,1.77
2023-09-18T00:39:54.654Z,1.73
2023-09-18T00:42:23.564Z,2.03
2023-09-18T00:44:51.469Z,1.50
2023-09-18T00:47:18.727Z,1.73
2023-09-18T00:49:49.786Z,2.00
2023-09-18T00:52:17.976Z,1.67
2023-09-18T00:54:45.871Z,2.03
2023-09-18T00:57:12.758Z,2.00
2023-09-18T00:59:40.362Z,1.85
2023-09-18T01:02:07.320Z,1.70
2023-09-18T01:04:34.701Z,2.13
2023-09-18T01:07:05.363Z,1.90
2023-09-18T01:09:33.876Z,2.17
2023-09-18T01:12:25.930Z,1.88
2023-09-18T01:15:21.904Z,2.00
2023-09-18T01:17:49.278Z,2.00
2023-09-18T01:20:35.864Z,1.70
2023-09-18T01:23:22.346Z,1.95
2023-09-18T01:26:09.324Z,2.03
2023-09-18T01:28:55.911Z,1.73
2023-09-18T01:31:42.594Z,2.00
2023-09-18T01:35:03.081Z,2.08
2023-09-18T01:37:31.941Z,1.83
2023-09-18T01:40:00.874Z,1.85
2023-09-18T01:42:28.726Z,1.77
2023-09-18T01:44:55.865Z,2.10
2023-09-18T01:47:27.956Z,2.30
2023-09-18T01:49:54.969Z,1.60
2023-09-18T01:52:21.666Z,2.05
2023-09-18T01:54:49.021Z,2.05
2023-09-18T01:57:15.605Z,1.98
2023-09-18T01:59:42.565Z,1.95
2023-09-18T02:02:10.742Z,2.40
2023-09-18T02:05:05.140Z,2.15
2023-09-18T02:07:26.062Z,2.20
2023-09-18T02:09:53.061Z,2.40
2023-09-18T02:12:20.090Z,3.00
2023-09-18T02:14:46.682Z,2.17
2023-09-18T02:17:13.254Z,2.50
2023-09-18T02:19:39.982Z,2.97
2023-09-18T02:22:06.619Z,2.58
2023-09-18T02:24:33.317Z,2.30
2023-09-18T02:26:59.809Z,3.00
2023-09-18T02:29:26.990Z,2.63
2023-09-18T02:31:54.300Z,2.53
2023-09-18T02:34:20.980Z,2.42
2023-09-18T02:36:48.256Z,2.35
2023-09-18T02:39:14.915Z,2.40
2023-09-18T02:41:41.543Z,2.10
2023-09-18T02:44:08.097Z,2.20
2023-09-18T02:46:34.805Z,3.03
2023-09-18T02:49:01.620Z,2.67
2023-09-18T02:51:28.265Z,2.28
2023-09-18T02:53:54.830Z,2.35
2023-09-18T02:56:21.783Z,2.55
2023-09-18T02:58:48.414Z,2.80
2023-09-18T03:01:15.004Z,2.40
2023-09-18T03:03:42.912Z,2.70
2023-09-18T03:06:10.610Z,2.30
2023-09-18T03:08:37.505Z,2.30
2023-09-18T03:11:12.766Z,2.47
2023-09-18T03:13:45.440Z,2.60
2023-09-18T03:16:13.164Z,2.67
2023-09-18T03:18:40.462Z,2.38
2023-09-18T03:21:07.033Z,2.30
2023-09-18T03:23:33.569Z,2.95
2023-09-18T03:26:01.040Z,2.33
2023-09-18T03:28:27.968Z,2.60
2023-09-18T03:30:55.000Z,3.10
2023-09-18T03:33:23.815Z,2.55
2023-09-18T03:35:55.473Z,2.45
2023-09-18T03:38:25.948Z,2.53
2023-09-18T03:40:53.060Z,2.40
2023-09-18T03:43:20.293Z,2.45
2023-09-18T03:45:47.369Z,3.10
2023-09-18T03:48:14.168Z,2.28
2023-09-18T03:50:41.906Z,3.35
2023-09-18T03:53:10.838Z,2.50
2023-09-18T03:55:37.588Z,2.35
2023-09-18T03:58:06.238Z,2.67
2023-09-18T04:00:32.966Z,2.92
2023-09-18T04:03:00.003Z,3.15
2023-09-18T04:05:27.990Z,3.13
2023-09-18T04:07:56.602Z,2.83
2023-09-18T04:10:24.703Z,2.97
2023-09-18T04:12:52.874Z,3.90
2023-09-18T04:15:20.775Z,2.95
2023-09-18T04:17:48.654Z,3.35
2023-09-18T04:20:15.805Z,3.20
2023-09-18T04:22:51.043Z,4.03
2023-09-18T04:25:20.340Z,3.75
2023-09-18T04:27:47.413Z,3.63
2023-09-18T04:30:15.011Z,4.05
2023-09-18T04:32:41.976Z,3.28
2023-09-18T04:35:09.957Z,3.42
2023-09-18T04:37:38.649Z,3.33
2023-09-18T04:40:10.762Z,3.00
2023-09-18T04:42:38.007Z,2.65
2023-09-18T04:45:06.426Z,2.80
2023-09-18T04:47:33.704Z,2.50
2023-09-18T04:50:00.566Z,2.67
2023-09-18T04:52:27.396Z,2.70
2023-09-18T04:54:55.255Z,2.42
2023-09-18T04:57:23.201Z,2.20
2023-09-18T04:59:58.443Z,2.65
2023-09-18T05:02:32.572Z,2.33
2023-09-18T05:04:59.373Z,2.50
2023-09-18T05:07:26.134Z,3.05
2023-09-18T05:09:53.320Z,2.53
2023-09-18T05:12:19.906Z,2.42
2023-09-18T05:14:46.737Z,3.05
2023-09-18T05:17:17.156Z,2.60
2023-09-18T05:19:44.665Z,2.75
2023-09-18T05:22:11.945Z,2.45
2023-09-18T05:24:41.587Z,3.03
2023-09-18T05:27:08.554Z,3.03
2023-09-18T05:29:38.696Z,2.28
2023-09-18T05:32:05.598Z,2.95
2023-09-18T05:34:33.118Z,2.75
2023-09-18T05:36:59.834Z,3.08
2023-09-18T05:39:26.605Z,2.72
2023-09-18T05:41:53.279Z,2.75
2023-09-18T05:44:19.977Z,3.15
2023-09-18T05:46:47.176Z,3.55
2023-09-18T05:49:13.897Z,3.22
2023-09-18T05:51:40.422Z,2.90
2023-09-18T05:54:06.957Z,3.65
2023-09-18T05:56:34.782Z,3.88
2023-09-18T05:59:01.351Z,4.07
2023-09-18T06:01:28.784Z,3.55
2023-09-18T06:03:55.363Z,3.92
2023-09-18T06:06:22.100Z,3.97
2023-09-18T06:08:48.676Z,3.78
2023-09-18T06:11:15.494Z,3.78
2023-09-18T06:13:41.982Z,3.75
2023-09-18T06:16:09.595Z,3.42
2023-09-18T06:18:39.169Z,4.32
2023-09-18T06:21:06.415Z,3.60
2023-09-18T06:23:33.255Z,3.40
2023-09-18T06:26:00.503Z,4.32
2023-09-18T06:28:27.250Z,3.65
2023-09-18T06:30:55.139Z,4.13
2023-09-18T06:33:22.141Z,3.72
2023-09-18T06:35:49.840Z,3.75
2023-09-18T06:38:16.648Z,4.07
2023-09-18T06:40:43.253Z,2.70
2023-09-18T06:43:09.850Z,3.60
2023-09-18T06:45:39.126Z,4.13
2023-09-18T06:48:06.342Z,3.92
2023-09-18T06:50:33.070Z,3.92
2023-09-18T06:52:59.701Z,3.63
2023-09-18T06:55:26.223Z,3.50
2023-09-18T06:57:53.146Z,3.67
2023-09-18T07:00:22.014Z,3.38
2023-09-18T07:02:50.851Z,4.10
2023-09-18T07:05:18.038Z,3.97
2023-09-18T07:07:44.759Z,3.17
2023-09-18T07:10:11.324Z,3.53
2023-09-18T07:12:38.126Z,3.35
2023-09-18T07:15:06.074Z,3.15
2023-09-18T07:17:34.054Z,3.38
2023-09-18T07:20:01.429Z,3.25
2023-09-18T07:22:30.709Z,3.53
2023-09-18T07:24:57.727Z,3.50
2023-09-18T07:27:24.416Z,3.10
2023-09-18T07:29:51.093Z,3.30
2023-09-18T07:32:29.909Z,3.25
2023-09-18T07:35:07.737Z,3.45
2023-09-18T07:37:35.336Z,3.35
2023-09-18T07:40:02.045Z,2.88
2023-09-18T07:42:28.730Z,2.72
2023-09-18T07:44:57.889Z,2.58
2023-09-18T07:47:25.920Z,3.17
2023-09-18T07:49:52.745Z,2.97
2023-09-18T07:52:19.306Z,2.55
2023-09-18T07:54:45.879Z,2.78
2023-09-18T07:57:12.748Z,2.88
2023-09-18T07:59:43.551Z,3.00
2023-09-18T08:02:13.113Z,2.85
2023-09-18T08:04:40.355Z,2.60
2023-09-18T08:07:08.150Z,2.42
2023-09-18T08:09:38.078Z,3.15
2023-09-18T08:12:04.996Z,2.00
2023-09-18T08:14:31.726Z,1.80
2023-09-18T08:16:59.912Z,2.05
2023-09-18T08:19:29.917Z,1.80
2023-09-18T08:22:05.156Z,2.20
2023-09-18T08:24:32.631Z,1.50
2023-09-18T08:26:59.200Z,1.70
2023-09-18T08:29:25.759Z,2.10
2023-09-18T08:31:52.356Z,1.40
2023-09-18T08:34:20.521Z,1.70
2023-09-18T08:36:48.860Z,1.60
2023-09-18T08:39:15.360Z,1.50
2023-09-18T08:41:44.102Z,1.42
2023-09-18T08:44:10.885Z,1.70
2023-09-18T08:46:38.844Z,1.63
2023-09-18T08:49:06.114Z,1.42
2023-09-18T08:51:34.236Z,1.55
2023-09-18T08:54:01.502Z,1.95
2023-09-18T08:56:29.311Z,1.45
2023-09-18T08:58:57.815Z,1.50
2023-09-18T09:01:24.319Z,1.83
2023-09-18T09:03:51.247Z,1.88
2023-09-18T09:06:18.132Z,1.60
2023-09-18T09:08:44.748Z,1.65
2023-09-18T09:11:11.592Z,1.60
2023-09-18T09:13:41.832Z,1.92
2023-09-18T09:16:14.647Z,1.40
2023-09-18T09:18:50.567Z,1.70
2023-09-18T09:21:18.074Z,1.60
2023-09-18T09:23:50.420Z,1.80
2023-09-18T09:26:18.918Z,1.40
2023-09-18T09:28:46.344Z,1.30
2023-09-18T09:31:24.042Z,1.50
2023-09-18T09:34:00.259Z,1.63
2023-09-18T09:36:27.219Z,1.20
2023-09-18T09:38:59.364Z,1.55
2023-09-18T09:41:28.714Z,1.40
2023-09-18T09:43:59.281Z,1.20
2023-09-18T09:46:27.076Z,1.55
2023-09-18T09:49:05.960Z,1.58
2023-09-18T09:51:35.314Z,2.22
2023-09-18T09:54:02.175Z,1.67
2023-09-18T09:56:43.720Z,1.42
2023-09-18T09:59:13.672Z,1.63
2023-09-18T10:01:41.454Z,1.60
2023-09-18T10:04:19.027Z,1.60
2023-09-18T10:06:52.196Z,1.23
2023-09-18T10:09:20.538Z,1.30
2023-09-18T10:11:53.319Z,1.75
2023-09-18T10:14:55.387Z,1.55
2023-09-18T10:17:28.546Z,1.30
2023-09-18T10:20:09.591Z,1.70
2023-09-18T10:22:43.892Z,1.20
2023-09-18T10:25:21.654Z,1.33
2023-09-18T10:27:59.305Z,1.23
2023-09-18T10:30:28.027Z,1.75
2023-09-18T10:32:56.071Z,1.23
2023-09-18T10:35:23.852Z,2.00
2023-09-18T10:37:55.004Z,0.95
2023-09-18T10:40:23.512Z,1.40
2023-09-18T10:42:52.001Z,1.42
2023-09-18T10:45:18.780Z,1.35
2023-09-18T10:47:49.183Z,1.63
2023-09-18T10:50:27.654Z,1.38
2023-09-18T10:52:54.638Z,1.65
2023-09-18T10:55:22.992Z,1.95
2023-09-18T10:57:58.323Z,1.42
2023-09-18T11:00:33.217Z,1.50
2023-09-18T11:03:14.043Z,1.45
2023-09-18T11:05:40.938Z,1.23
2023-09-18T11:08:29.514Z,1.80
2023-09-18T11:11:15.278Z,1.40
2023-09-18T11:13:44.907Z,1.40
2023-09-18T11:16:26.977Z,1.88
2023-09-18T11:19:17.948Z,1.50
2023-09-18T11:21:44.825Z,1.65
2023-09-18T11:24:31.595Z,1.30
2023-09-18T11:26:58.344Z,1.60
2023-09-18T11:29:28.009Z,1.95
2023-09-18T11:31:57.566Z,1.70
2023-09-18T11:34:34.230Z,1.50
2023-09-18T11:37:01.139Z,1.85
2023-09-18T11:39:41.568Z,1.50
2023-09-18T11:42:11.049Z,1.70
2023-09-18T11:44:42.752Z,1.55
2023-09-18T11:47:20.621Z,1.98
2023-09-18T11:49:57.027Z,1.55
2023-09-18T11:52:26.134Z,1.50
2023-09-18T11:54:54.049Z,1.80
2023-09-18T11:57:20.875Z,1.45
2023-09-18T11:59:48.118Z,1.30
2023-09-18T12:02:39.432Z,2.42
2023-09-18T12:05:11.190Z,1.55
2023-09-18T12:07:37.886Z,1.67
2023-09-18T12:10:09.798Z,1.13
2023-09-18T12:12:37.120Z,1.70
2023-09-18T12:15:04.655Z,1.90
2023-09-18T12:17:31.371Z,1.33
2023-09-18T12:19:58.020Z,1.50
2023-09-18T12:22:29.127Z,1.45
2023-09-18T12:25:17.152Z,1.67
2023-09-18T12:27:44.931Z,1.65
2023-09-18T12:30:12.977Z,1.98
2023-09-18T12:32:40.395Z,1.20
2023-09-18T12:35:08.489Z,1.50
2023-09-18T12:37:42.445Z,1.17
2023-09-18T12:40:23.076Z,1.48
2023-09-18T12:42:51.456Z,1.10
2023-09-18T12:45:18.660Z,1.65
2023-09-18T12:47:45.586Z,1.33
2023-09-18T12:50:15.693Z,1.55
2023-09-18T12:52:42.724Z,1.00
2023-09-18T12:55:10.139Z,2.45
2023-09-18T12:57:36.752Z,1.80
2023-09-18T13:00:14.277Z,1.30
2023-09-18T13:02:41.201Z,1.00
2023-09-18T13:05:08.563Z,1.30
2023-09-18T13:07:46.228Z,1.50
2023-09-18T13:10:14.503Z,1.30
2023-09-18T13:12:42.822Z,1.38
2023-09-18T13:15:10.144Z,1.25
2023-09-18T13:17:42.385Z,1.50
2023-09-18T13:20:22.010Z,1.20
2023-09-18T13:22:53.318Z,1.30
2023-09-18T13:25:22.900Z,1.77
2023-09-18T13:27:50.909Z,1.08
2023-09-18T13:30:21.640Z,1.38
2023-09-18T13:32:50.165Z,1.10
2023-09-18T13:35:18.251Z,1.20
2023-09-18T13:37:45.363Z,1.60
2023-09-18T13:40:12.644Z,1.63
2023-09-18T13:42:39.717Z,2.03
2023-09-18T13:45:07.332Z,1.30
2023-09-18T13:47:35.266Z,1.48
2023-09-18T13:50:03.792Z,1.38
2023-09-18T13:52:32.607Z,1.30
2023-09-18T13:54:59.573Z,1.48
2023-09-18T13:57:26.187Z,1.42
2023-09-18T13:59:53.188Z,1.45
2023-09-18T14:02:20.196Z,1.58
2023-09-18T14:04:46.996Z,0.90
2023-09-18T14:07:13.523Z,1.20
2023-09-18T14:09:40.252Z,1.33
2023-09-18T14:12:08.312Z,1.55
2023-09-18T14:14:36.240Z,1.00
2023-09-18T14:17:04.831Z,1.23
2023-09-18T14:19:31.453Z,1.42
2023-09-18T14:21:58.187Z,1.83
2023-09-18T14:24:26.922Z,1.20
2023-09-18T14:26:53.744Z,1.30
2023-09-18T14:29:20.531Z,1.15
2023-09-18T14:31:47.146Z,1.20
2023-09-18T14:34:13.851Z,1.80
2023-09-18T14:36:40.687Z,1.80
2023-09-18T14:39:10.612Z,1.60
2023-09-18T14:44:10.076Z,1.20
2023-09-18T14:46:38.663Z,1.13
2023-09-18T14:49:06.215Z,1.38
2023-09-18T14:51:33.573Z,1.10
2023-09-18T14:54:01.052Z,1.25
2023-09-18T14:56:28.753Z,1.20
2023-09-18T14:58:56.338Z,1.20
2023-09-18T15:01:23.676Z,1.35
2023-09-18T15:03:50.544Z,1.17
2023-09-18T15:06:17.977Z,1.05
2023-09-18T15:08:44.594Z,1.40
2023-09-18T15:11:12.116Z,1.10
2023-09-18T15:13:38.946Z,1.10
2023-09-18T15:16:07.322Z,1.35
2023-09-18T15:18:33.976Z,1.20
2023-09-18T15:21:00.822Z,1.70
2023-09-18T15:23:27.531Z,1.20
2023-09-18T15:25:54.844Z,1.10
2023-09-18T15:28:21.579Z,1.33
2023-09-18T15:30:49.072Z,1.40
2023-09-18T15:33:18.263Z,1.42
2023-09-18T15:35:45.653Z,1.33
2023-09-18T15:38:12.510Z,1.30
2023-09-18T15:40:39.630Z,1.20
2023-09-18T15:43:06.210Z,1.50
2023-09-18T15:45:36.238Z,1.23
2023-09-18T15:50:38.040Z,1.38
2023-09-18T15:53:05.125Z,1.27
2023-09-18T15:55:31.679Z,1.20
2023-09-18T15:57:58.342Z,1.48
2023-09-18T16:00:24.994Z,1.60
2023-09-18T16:02:59.774Z,1.13
2023-09-18T16:05:27.094Z,1.13
2023-09-18T16:08:04.333Z,1.08
2023-09-18T16:10:33.276Z,1.10
2023-09-18T16:13:00.840Z,1.15
2023-09-18T16:15:30.517Z,1.70
2023-09-18T16:17:57.047Z,1.67
2023-09-18T16:20:23.972Z,1.40
2023-09-18T16:22:50.782Z,1.10
2023-09-18T16:25:17.396Z,1.30
2023-09-18T16:27:43.920Z,1.30
2023-09-18T16:30:11.406Z,1.30
2023-09-18T16:32:39.725Z,1.52
2023-09-18T16:35:06.729Z,1.23
2023-09-18T16:37:33.978Z,1.23
2023-09-18T16:40:00.848Z,1.38
2023-09-18T16:42:27.588Z,1.20
2023-09-18T16:44:55.556Z,1.27
2023-09-18T16:47:22.426Z,1.92
2023-09-18T16:49:50.135Z,1.13
2023-09-18T16:52:18.382Z,1.58
2023-09-18T16:54:45.330Z,1.13
2023-09-18T16:57:13.985Z,1.20
2023-09-18T16:59:40.643Z,1.50
2023-09-18T17:02:09.506Z,1.20
2023-09-18T17:04:41.063Z,1.17
2023-09-18T17:07:11.880Z,1.00
2023-09-18T17:09:38.964Z,1.10
2023-09-18T17:12:06.270Z,1.30
2023-09-18T17:14:32.930Z,1.40
2023-09-18T17:16:59.714Z,1.45
2023-09-18T17:19:26.167Z,1.30
2023-09-18T17:21:52.734Z,0.98
2023-09-18T17:24:19.312Z,1.52
2023-09-18T17:26:46.053Z,1.30
2023-09-18T17:29:12.677Z,1.30
2023-09-18T17:31:39.152Z,1.85
2023-09-18T17:34:06.222Z,1.40
2023-09-18T17:36:40.848Z,1.45
2023-09-18T17:39:10.070Z,1.15
2023-09-18T17:41:36.764Z,1.75
2023-09-18T17:44:03.669Z,1.30
2023-09-18T17:46:30.773Z,1.70
2023-09-18T17:48:57.515Z,1.95
2023-09-18T17:51:24.123Z,1.55
2023-09-18T17:53:51.484Z,1.30
2023-09-18T17:56:18.034Z,1.50
2023-09-18T17:58:44.976Z,1.40
2023-09-18T18:01:12.204Z,1.33
2023-09-18T18:03:41.134Z,1.25
2023-09-18T18:06:11.800Z,1.20
2023-09-18T18:08:38.370Z,1.48
2023-09-18T18:11:05.636Z,1.30
2023-09-18T18:13:32.673Z,1.13
2023-09-18T18:15:59.482Z,1.27
2023-09-18T18:18:26.805Z,0.90
2023-09-18T18:20:56.609Z,1.00
2023-09-18T18:23:23.530Z,0.93
2023-09-18T18:25:53.025Z,0.70
2023-09-18T18:28:19.792Z,0.80
2023-09-18T18:30:50.233Z,1.00
2023-09-18T18:33:23.290Z,0.68
2023-09-18T18:35:50.101Z,0.50
2023-09-18T18:38:16.927Z,0.60
2023-09-18T18:40:44.339Z,0.45
2023-09-18T18:43:17.007Z,0.50
2023-09-18T18:45:44.183Z,0.60
2023-09-18T18:48:10.944Z,1.30
2023-09-18T18:50:39.834Z,0.52
2023-09-18T18:53:08.618Z,0.52
2023-09-18T18:55:35.547Z,0.95
2023-09-18T18:58:02.117Z,0.38
2023-09-18T19:00:28.790Z,0.40
2023-09-18T19:02:55.548Z,0.50
2023-09-18T19:05:25.147Z,0.40
2023-09-18T19:07:52.215Z,0.40
2023-09-18T19:10:18.763Z,0.40
2023-09-18T19:12:48.545Z,0.45
2023-09-18T19:15:15.712Z,0.30
2023-09-18T19:17:44.051Z,0.40
2023-09-18T19:20:12.066Z,0.30
2023-09-18T19:22:38.988Z,0.50
2023-09-18T19:25:05.968Z,0.60
2023-09-18T19:27:37.590Z,0.40
2023-09-18T19:30:08.257Z,0.50
2023-09-18T19:32:38.923Z,0.35
2023-09-18T19:35:06.661Z,0.63
2023-09-18T19:37:33.798Z,0.68
2023-09-18T19:40:00.448Z,0.52
2023-09-18T19:42:27.186Z,0.70
2023-09-18T19:44:53.727Z,0.68
2023-09-18T19:47:20.443Z,0.60
2023-09-18T19:49:46.948Z,0.65
2023-09-18T19:52:15.030Z,0.77
2023-09-18T19:54:41.817Z,0.70
2023-09-18T19:57:08.790Z,1.00
2023-09-18T19:59:35.760Z,0.70
2023-09-18T20:02:07.138Z,0.88
2023-09-18T20:04:34.869Z,0.82
2023-09-18T20:07:01.565Z,0.50
2023-09-18T20:09:28.420Z,0.93
2023-09-18T20:11:55.200Z,1.13
2023-09-18T20:14:31.145Z,0.70
2023-09-18T20:16:59.090Z,0.95
2023-09-18T20:19:25.758Z,0.82
2023-09-18T20:21:53.084Z,0.95
2023-09-18T20:24:20.368Z,0.80
2023-09-18T20:26:48.927Z,1.00
2023-09-18T20:29:16.830Z,1.08
2023-09-18T20:31:43.885Z,1.30
2023-09-18T20:34:11.024Z,1.38
2023-09-18T20:36:39.716Z,1.75
2023-09-18T20:39:06.432Z,1.70
2023-09-18T20:41:33.637Z,1.63
2023-09-18T20:44:01.281Z,1.40
2023-09-18T20:46:31.604Z,1.30
2023-09-18T20:51:31.927Z,1.20
2023-09-18T20:54:01.262Z,1.00
2023-09-18T20:56:28.722Z,0.93
2023-09-18T20:58:57.787Z,1.05
2023-09-18T21:01:27.793Z,0.90
2023-09-18T21:04:07.515Z,0.80
2023-09-18T21:06:34.427Z,1.10
2023-09-18T21:09:01.139Z,1.05
2023-09-18T21:11:28.408Z,1.00
2023-09-18T21:13:55.385Z,1.23
2023-09-18T21:16:22.102Z,1.08
2023-09-18T21:18:48.758Z,0.93
2023-09-18T21:21:16.529Z,1.10
2023-09-18T21:23:45.627Z,1.20
2023-09-18T21:26:13.203Z,1.30
2023-09-18T21:28:40.707Z,1.10
2023-09-18T21:31:09.697Z,1.00
2023-09-18T21:33:37.615Z,0.90
2023-09-18T21:36:22.410Z,0.90
2023-09-18T21:38:50.453Z,0.90
2023-09-18T21:41:18.485Z,1.08
2023-09-18T21:43:46.186Z,1.00
2023-09-18T21:46:13.828Z,1.30
2023-09-18T21:48:40.987Z,1.08
2023-09-18T21:51:08.484Z,1.15
2023-09-18T21:56:05.664Z,0.80
2023-09-18T21:58:32.227Z,0.82
2023-09-18T22:01:02.315Z,1.00
2023-09-18T22:03:28.967Z,1.10
2023-09-18T22:05:55.737Z,1.10
2023-09-18T22:08:22.257Z,1.20
2023-09-18T22:10:48.949Z,1.00
2023-09-18T22:13:16.857Z,1.17
2023-09-18T22:15:43.705Z,0.98
2023-09-18T22:18:10.808Z,1.00
2023-09-18T22:20:39.257Z,0.93
2023-09-18T22:23:07.014Z,1.10
2023-09-18T22:25:34.123Z,1.00
2023-09-18T22:28:02.615Z,1.10
2023-09-18T22:30:30.313Z,1.33
2023-09-18T22:32:57.136Z,0.80
2023-09-18T22:35:24.176Z,1.10
2023-09-18T22:38:02.618Z,1.00
2023-09-18T22:40:29.489Z,1.13
2023-09-18T22:43:38.478Z,1.00
2023-09-18T22:46:42.852Z,1.02
2023-09-18T22:49:48.100Z,1.35
2023-09-18T22:52:44.201Z,0.93
2023-09-18T22:55:15.294Z,1.40
2023-09-18T22:57:46.727Z,1.15
2023-09-18T23:00:15.826Z,0.90
2023-09-18T23:02:44.178Z,1.20
2023-09-18T23:05:16.923Z,1.40
2023-09-18T23:07:50.920Z,1.30
2023-09-18T23:10:17.953Z,0.90
2023-09-18T23:12:45.566Z,1.00
2023-09-18T23:15:13.923Z,0.88
2023-09-18T23:17:41.377Z,1.15
2023-09-18T23:20:12.794Z,0.98
2023-09-18T23:22:41.561Z,1.20
2023-09-18T23:25:13.204Z,0.77
2023-09-18T23:27:46.424Z,1.23
2023-09-18T23:30:21.374Z,0.80
2023-09-18T23:32:56.313Z,1.25
2023-09-18T23:35:23.103Z,1.00
2023-09-18T23:38:00.830Z,1.35
2023-09-18T23:40:32.622Z,1.00
2023-09-18T23:43:04.713Z,0.70
2023-09-18T23:45:39.273Z,1.35
2023-09-18T23:48:14.577Z,1.17
2023-09-18T23:50:49.966Z,1.20
2023-09-18T23:53:25.973Z,0.80
2023-09-18T23:55:53.446Z,1.27
2023-09-18T23:58:23.238Z,1.17
